Pagrindinis puslapis
METAR-TAF:

METAR-TAF

Oro uostai :

Petrolina, Pernambuco, Brazilija

platuma: 09-21S, ilguma: 040-33W, Aukštis: 385 m

Dabartinis oras

Ataskaita buvo paskelbta 37 minutes, ne 21:45 UTC
Vėjas 8 kt iš Pietų
Temperatūra 25°C
Drėgmė 65%
Slėgis 1016 hPa
Matomumas 10 km arba daugiau
nėra debesų žemiau 1500 m ir nėra kamuolinių lietaus debesų

METAR: SBPL 302145Z 18008KT CAVOK 25/18 Q1016

Laikas: 19:22 (22:22 UTC)

Prognozė

Ataskaita buvo paskelbta 7 valandos ir 22 minutes, ne 15:00 UTC
Prognozė galioja nuo 30 metu 18 UTC su 31 metu 18 UTC
Vėjas 10 kt iš Pietų/Pietryčių
Matomumas 10 km arba daugiau
Mažai debesys ne aukštis 3500 ft
Tapsmas
nuo 31 metu 06 UTC su 31 metu 08 UTC
Išsisklaidę debesys ne aukštis 2500 ft
Tapsmas
nuo 31 metu 14 UTC su 31 metu 16 UTC
Mažai debesys ne aukštis 3500 ft

TAF: SBPL 301500Z 3018/3118 15010KT 9999 FEW035 TN22/3106Z TX30/3116Z BECMG 3106/3108 SCT025 BECMG 3114/3116 FEW035 RMK PDW

Orai ataskaitas ir orų prognozės (METAR, TAF).

turimą stotys yra geltonos ir raudonos taškus žemėlapyje.

Perkelti pele per norėdami pamatyti stoties vardą.

Tada spustelėkite, norėdami matyti oro stebėjimo ir prognozės.

Norėdami pakeisti žemėlapį: spustelėkite ant žalios mygtukų su juodo kryžiaus žemyn,; žalią mygtuką su brūkšneliu, jei norite nutolinti; arba žalių rodyklių gretimoms žemėlapius.


METAR-TAF: